sensor_id;sensor_type;location;lat;lon;timestamp;pressure;altitude;pressure_sealevel;temperature;humidity
42125;BME280;27787;44.594;11.046;2023-11-19T00:02:16;101658.19;;;8.02;73.81
42125;BME280;27787;44.594;11.046;2023-11-19T00:05:00;101657.59;;;7.83;75.56
42125;BME280;27787;44.594;11.046;2023-11-19T00:07:44;101658.88;;;7.69;76.32
42125;BME280;27787;44.594;11.046;2023-11-19T00:10:28;101659.66;;;7.66;77.15
42125;BME280;27787;44.594;11.046;2023-11-19T00:13:12;101659.97;;;7.76;76.53
42125;BME280;27787;44.594;11.046;2023-11-19T00:15:56;101659.22;;;7.80;75.16
42125;BME280;27787;44.594;11.046;2023-11-19T00:18:40;101662.03;;;7.84;75.00
42125;BME280;27787;44.594;11.046;2023-11-19T00:21:24;101670.97;;;7.91;74.45
42125;BME280;27787;44.594;11.046;2023-11-19T00:24:12;101668.25;;;7.88;74.08
42125;BME280;27787;44.594;11.046;2023-11-19T00:26:56;101667.84;;;7.76;74.71
42125;BME280;27787;44.594;11.046;2023-11-19T00:29:40;101666.81;;;7.71;75.43
42125;BME280;27787;44.594;11.046;2023-11-19T00:32:24;101661.72;;;7.75;74.77
42125;BME280;27787;44.594;11.046;2023-11-19T00:35:09;101654.81;;;7.79;74.54
42125;BME280;27787;44.594;11.046;2023-11-19T00:37:59;101646.19;;;7.83;73.15
42125;BME280;27787;44.594;11.046;2023-11-19T00:40:44;101643.53;;;7.81;73.54
42125;BME280;27787;44.594;11.046;2023-11-19T00:43:28;101636.47;;;7.80;74.10
42125;BME280;27787;44.594;11.046;2023-11-19T00:46:12;101640.72;;;7.77;75.23
42125;BME280;27787;44.594;11.046;2023-11-19T00:48:57;101656.53;;;7.78;75.90
42125;BME280;27787;44.594;11.046;2023-11-19T00:51:43;101661.84;;;7.80;75.68
42125;BME280;27787;44.594;11.046;2023-11-19T00:54:28;101671.91;;;7.66;75.83
42125;BME280;27787;44.594;11.046;2023-11-19T00:57:12;101670.50;;;7.50;76.69
42125;BME280;27787;44.594;11.046;2023-11-19T00:59:56;101693.03;;;7.44;77.38
42125;BME280;27787;44.594;11.046;2023-11-19T01:02:41;101693.03;;;7.44;77.33
42125;BME280;27787;44.594;11.046;2023-11-19T01:05:25;101699.25;;;7.46;75.86
42125;BME280;27787;44.594;11.046;2023-11-19T01:08:10;101687.06;;;7.48;75.00
42125;BME280;27787;44.594;11.046;2023-11-19T01:10:54;101683.63;;;7.50;73.92
42125;BME280;27787;44.594;11.046;2023-11-19T01:13:38;101683.72;;;7.53;74.16
42125;BME280;27787;44.594;11.046;2023-11-19T01:16:22;101667.25;;;7.57;73.79
42125;BME280;27787;44.594;11.046;2023-11-19T01:19:06;101649.84;;;7.61;72.66
42125;BME280;27787;44.594;11.046;2023-11-19T01:21:51;101667.19;;;7.56;76.02
42125;BME280;27787;44.594;11.046;2023-11-19T01:24:36;101662.41;;;7.44;77.78
42125;BME280;27787;44.594;11.046;2023-11-19T01:27:20;101654.34;;;7.39;78.95
42125;BME280;27787;44.594;11.046;2023-11-19T01:30:04;101653.41;;;7.37;77.95
42125;BME280;27787;44.594;11.046;2023-11-19T01:32:49;101659.31;;;7.30;78.76
42125;BME280;27787;44.594;11.046;2023-11-19T01:35:33;101661.59;;;7.21;80.06
42125;BME280;27787;44.594;11.046;2023-11-19T01:38:17;101659.63;;;7.16;80.86
42125;BME280;27787;44.594;11.046;2023-11-19T01:41:01;101655.19;;;7.13;79.95
42125;BME280;27787;44.594;11.046;2023-11-19T01:43:47;101630.72;;;7.14;80.35
42125;BME280;27787;44.594;11.046;2023-11-19T01:46:31;101647.25;;;7.12;80.17
42125;BME280;27787;44.594;11.046;2023-11-19T01:49:19;101656.72;;;7.06;81.24
42125;BME280;27787;44.594;11.046;2023-11-19T01:52:04;101648.72;;;7.03;79.91
42125;BME280;27787;44.594;11.046;2023-11-19T01:54:49;101651.41;;;7.05;78.17
42125;BME280;27787;44.594;11.046;2023-11-19T01:57:35;101647.31;;;7.13;75.71
42125;BME280;27787;44.594;11.046;2023-11-19T02:00:21;101635.59;;;7.29;72.28
42125;BME280;27787;44.594;11.046;2023-11-19T02:03:09;101626.22;;;7.35;72.64
42125;BME280;27787;44.594;11.046;2023-11-19T02:05:53;101619.53;;;7.45;69.74
42125;BME280;27787;44.594;11.046;2023-11-19T02:08:37;101619.78;;;7.53;68.32
42125;BME280;27787;44.594;11.046;2023-11-19T02:11:23;101622.53;;;7.56;70.43
42125;BME280;27787;44.594;11.046;2023-11-19T02:14:07;101616.13;;;7.48;72.09
42125;BME280;27787;44.594;11.046;2023-11-19T02:16:52;101624.34;;;7.31;74.93
42125;BME280;27787;44.594;11.046;2023-11-19T02:19:36;101611.56;;;7.17;76.46
42125;BME280;27787;44.594;11.046;2023-11-19T02:22:22;101610.50;;;7.12;76.65
42125;BME280;27787;44.594;11.046;2023-11-19T02:25:08;101606.38;;;7.18;75.39
42125;BME280;27787;44.594;11.046;2023-11-19T02:27:58;101602.72;;;7.15;76.27
42125;BME280;27787;44.594;11.046;2023-11-19T02:30:43;101600.03;;;7.13;75.81
42125;BME280;27787;44.594;11.046;2023-11-19T02:33:28;101602.25;;;7.01;76.85
42125;BME280;27787;44.594;11.046;2023-11-19T02:36:13;101588.88;;;6.93;77.66
42125;BME280;27787;44.594;11.046;2023-11-19T02:38:58;101596.63;;;6.90;77.38
42125;BME280;27787;44.594;11.046;2023-11-19T02:41:42;101582.88;;;6.97;77.24
42125;BME280;27787;44.594;11.046;2023-11-19T02:44:26;101575.38;;;7.08;73.19
42125;BME280;27787;44.594;11.046;2023-11-19T02:47:13;101565.91;;;7.13;72.11
42125;BME280;27787;44.594;11.046;2023-11-19T02:49:57;101554.53;;;7.13;72.90
42125;BME280;27787;44.594;11.046;2023-11-19T02:52:42;101556.91;;;7.05;73.69
42125;BME280;27787;44.594;11.046;2023-11-19T02:55:26;101554.69;;;6.92;76.59
42125;BME280;27787;44.594;11.046;2023-11-19T02:58:14;101556.84;;;6.78;78.32
42125;BME280;27787;44.594;11.046;2023-11-19T03:01:08;101560.06;;;6.71;78.46
42125;BME280;27787;44.594;11.046;2023-11-19T03:04:07;101548.47;;;6.64;78.99
42125;BME280;27787;44.594;11.046;2023-11-19T03:06:54;101545.66;;;6.60;79.36
42125;BME280;27787;44.594;11.046;2023-11-19T03:09:39;101549.81;;;6.53;80.08
42125;BME280;27787;44.594;11.046;2023-11-19T03:12:24;101544.38;;;6.48;80.63
42125;BME280;27787;44.594;11.046;2023-11-19T03:15:08;101538.19;;;6.46;81.33
42125;BME280;27787;44.594;11.046;2023-11-19T03:17:55;101533.75;;;6.44;82.26
42125;BME280;27787;44.594;11.046;2023-11-19T03:20:39;101530.28;;;6.45;82.38
42125;BME280;27787;44.594;11.046;2023-11-19T03:23:24;101525.81;;;6.42;82.29
42125;BME280;27787;44.594;11.046;2023-11-19T03:26:12;101529.28;;;6.41;82.81
42125;BME280;27787;44.594;11.046;2023-11-19T03:28:57;101543.28;;;6.42;83.32
42125;BME280;27787;44.594;11.046;2023-11-19T03:31:44;101538.09;;;6.43;82.49
42125;BME280;27787;44.594;11.046;2023-11-19T03:34:28;101538.75;;;6.38;82.96
42125;BME280;27787;44.594;11.046;2023-11-19T03:37:12;101540.41;;;6.36;83.88
42125;BME280;27787;44.594;11.046;2023-11-19T03:40:01;101528.03;;;6.32;84.22
42125;BME280;27787;44.594;11.046;2023-11-19T03:42:46;101528.03;;;6.32;84.83
42125;BME280;27787;44.594;11.046;2023-11-19T03:45:30;101523.66;;;6.31;85.26
42125;BME280;27787;44.594;11.046;2023-11-19T03:48:15;101516.66;;;6.31;85.35
42125;BME280;27787;44.594;11.046;2023-11-19T03:51:00;101521.91;;;6.31;85.02
42125;BME280;27787;44.594;11.046;2023-11-19T03:53:45;101524.38;;;6.27;84.78
42125;BME280;27787;44.594;11.046;2023-11-19T03:56:30;101523.53;;;6.28;84.31
42125;BME280;27787;44.594;11.046;2023-11-19T03:59:15;101523.53;;;6.28;84.88
42125;BME280;27787;44.594;11.046;2023-11-19T04:01:59;101528.78;;;6.28;85.45
42125;BME280;27787;44.594;11.046;2023-11-19T04:04:45;101528.84;;;6.29;85.71
42125;BME280;27787;44.594;11.046;2023-11-19T04:07:29;101533.19;;;6.29;85.23
42125;BME280;27787;44.594;11.046;2023-11-19T04:10:13;101542.53;;;6.22;85.52
42125;BME280;27787;44.594;11.046;2023-11-19T04:13:00;101553.59;;;6.13;84.76
42125;BME280;27787;44.594;11.046;2023-11-19T04:15:45;101555.38;;;6.14;83.80
42125;BME280;27787;44.594;11.046;2023-11-19T04:18:29;101548.66;;;6.22;81.84
42125;BME280;27787;44.594;11.046;2023-11-19T04:21:13;101542.00;;;6.31;79.99
42125;BME280;27787;44.594;11.046;2023-11-19T04:23:57;101547.59;;;6.40;78.29
42125;BME280;27787;44.594;11.046;2023-11-19T04:26:42;101541.00;;;6.51;76.23
42125;BME280;27787;44.594;11.046;2023-11-19T04:29:30;101543.88;;;6.59;74.80
42125;BME280;27787;44.594;11.046;2023-11-19T04:32:15;101529.28;;;6.65;77.02
42125;BME280;27787;44.594;11.046;2023-11-19T04:34:59;101537.16;;;6.65;79.78
42125;BME280;27787;44.594;11.046;2023-11-19T04:37:43;101539.47;;;6.58;82.11
42125;BME280;27787;44.594;11.046;2023-11-19T04:40:28;101539.13;;;6.48;83.26
42125;BME280;27787;44.594;11.046;2023-11-19T04:43:12;101540.56;;;6.39;84.28
42125;BME280;27787;44.594;11.046;2023-11-19T04:45:56;101535.06;;;6.33;84.98
42125;BME280;27787;44.594;11.046;2023-11-19T04:48:41;101532.41;;;6.31;85.20
42125;BME280;27787;44.594;11.046;2023-11-19T04:51:25;101524.47;;;6.30;84.72
42125;BME280;27787;44.594;11.046;2023-11-19T04:54:10;101519.25;;;6.30;85.39
42125;BME280;27787;44.594;11.046;2023-11-19T04:56:54;101516.63;;;6.30;84.96
42125;BME280;27787;44.594;11.046;2023-11-19T04:59:38;101519.78;;;6.21;85.23
42125;BME280;27787;44.594;11.046;2023-11-19T05:02:22;101514.88;;;6.06;85.67
42125;BME280;27787;44.594;11.046;2023-11-19T05:05:06;101516.13;;;5.94;86.59
42125;BME280;27787;44.594;11.046;2023-11-19T05:07:51;101503.19;;;5.98;87.14
42125;BME280;27787;44.594;11.046;2023-11-19T05:10:35;101511.19;;;6.01;85.99
42125;BME280;27787;44.594;11.046;2023-11-19T05:13:22;101501.41;;;5.97;85.32
42125;BME280;27787;44.594;11.046;2023-11-19T05:16:06;101489.97;;;5.95;86.26
42125;BME280;27787;44.594;11.046;2023-11-19T05:18:50;101493.78;;;6.03;85.54
42125;BME280;27787;44.594;11.046;2023-11-19T05:21:34;101482.81;;;6.13;84.77
42125;BME280;27787;44.594;11.046;2023-11-19T05:24:19;101486.78;;;6.26;83.82
42125;BME280;27787;44.594;11.046;2023-11-19T05:27:03;101483.31;;;6.27;83.09
42125;BME280;27787;44.594;11.046;2023-11-19T05:29:48;101478.97;;;6.28;83.25
42125;BME280;27787;44.594;11.046;2023-11-19T05:32:32;101481.75;;;6.32;82.90
42125;BME280;27787;44.594;11.046;2023-11-19T05:35:17;101479.41;;;6.40;81.87
42125;BME280;27787;44.594;11.046;2023-11-19T05:38:01;101477.00;;;6.46;80.84
42125;BME280;27787;44.594;11.046;2023-11-19T05:40:47;101458.09;;;6.31;81.00
42125;BME280;27787;44.594;11.046;2023-11-19T05:43:32;101456.53;;;6.12;81.91
42125;BME280;27787;44.594;11.046;2023-11-19T05:46:17;101460.44;;;5.99;82.69
42125;BME280;27787;44.594;11.046;2023-11-19T05:49:01;101456.03;;;5.98;82.65
42125;BME280;27787;44.594;11.046;2023-11-19T05:51:46;101449.44;;;6.09;80.67
42125;BME280;27787;44.594;11.046;2023-11-19T05:54:30;101448.06;;;6.19;79.93
42125;BME280;27787;44.594;11.046;2023-11-19T05:57:15;101448.16;;;6.22;79.34
42125;BME280;27787;44.594;11.046;2023-11-19T06:00:04;101444.00;;;6.27;78.27
42125;BME280;27787;44.594;11.046;2023-11-19T06:02:55;101446.63;;;6.27;77.88
42125;BME280;27787;44.594;11.046;2023-11-19T06:05:40;101440.44;;;6.25;77.61
42125;BME280;27787;44.594;11.046;2023-11-19T06:08:24;101431.03;;;6.32;76.65
42125;BME280;27787;44.594;11.046;2023-11-19T06:11:10;101433.66;;;6.32;75.90
42125;BME280;27787;44.594;11.046;2023-11-19T06:14:02;101439.59;;;6.26;76.05
42125;BME280;27787;44.594;11.046;2023-11-19T06:16:49;101436.69;;;6.18;77.41
42125;BME280;27787;44.594;11.046;2023-11-19T06:19:33;101435.69;;;6.15;76.77
42125;BME280;27787;44.594;11.046;2023-11-19T06:22:17;101424.03;;;6.07;78.49
42125;BME280;27787;44.594;11.046;2023-11-19T06:25:02;101426.19;;;5.95;80.34
42125;BME280;27787;44.594;11.046;2023-11-19T06:27:51;101439.84;;;5.86;80.58
42125;BME280;27787;44.594;11.046;2023-11-19T06:30:35;101443.88;;;5.78;81.49
42125;BME280;27787;44.594;11.046;2023-11-19T06:33:20;101452.47;;;5.74;81.91
42125;BME280;27787;44.594;11.046;2023-11-19T06:36:04;101456.69;;;5.70;82.69
42125;BME280;27787;44.594;11.046;2023-11-19T06:38:48;101457.53;;;5.69;83.52
42125;BME280;27787;44.594;11.046;2023-11-19T06:41:32;101453.91;;;5.66;83.98
42125;BME280;27787;44.594;11.046;2023-11-19T06:44:17;101453.00;;;5.65;83.61
42125;BME280;27787;44.594;11.046;2023-11-19T06:47:02;101463.53;;;5.67;83.74
42125;BME280;27787;44.594;11.046;2023-11-19T06:49:46;101469.78;;;5.70;84.21
42125;BME280;27787;44.594;11.046;2023-11-19T06:52:31;101460.34;;;5.74;83.73
42125;BME280;27787;44.594;11.046;2023-11-19T06:55:15;101468.31;;;5.77;83.82
42125;BME280;27787;44.594;11.046;2023-11-19T06:58:00;101472.16;;;5.86;83.60
42125;BME280;27787;44.594;11.046;2023-11-19T07:00:46;101468.31;;;5.99;82.90
42125;BME280;27787;44.594;11.046;2023-11-19T07:03:31;101472.19;;;6.10;80.66
42125;BME280;27787;44.594;11.046;2023-11-19T07:06:15;101466.56;;;6.24;78.14
42125;BME280;27787;44.594;11.046;2023-11-19T07:08:59;101463.53;;;6.37;76.74
42125;BME280;27787;44.594;11.046;2023-11-19T07:11:42;101471.59;;;6.41;75.54
42125;BME280;27787;44.594;11.046;2023-11-19T07:14:27;101469.13;;;6.46;75.58
42125;BME280;27787;44.594;11.046;2023-11-19T07:17:12;101467.38;;;6.46;74.79
42125;BME280;27787;44.594;11.046;2023-11-19T07:19:56;101465.72;;;6.48;77.26
42125;BME280;27787;44.594;11.046;2023-11-19T07:22:43;101463.13;;;6.50;78.57
42125;BME280;27787;44.594;11.046;2023-11-19T07:25:29;101470.00;;;6.46;80.15
42125;BME280;27787;44.594;11.046;2023-11-19T07:28:14;101479.91;;;6.54;80.47
42125;BME280;27787;44.594;11.046;2023-11-19T07:30:58;101483.00;;;6.67;80.33
42125;BME280;27787;44.594;11.046;2023-11-19T07:33:43;101481.63;;;6.78;79.08
42125;BME280;27787;44.594;11.046;2023-11-19T07:36:28;101484.59;;;6.89;79.31
42125;BME280;27787;44.594;11.046;2023-11-19T07:39:12;101491.59;;;6.89;80.57
42125;BME280;27787;44.594;11.046;2023-11-19T07:41:57;101496.97;;;6.92;80.00
42125;BME280;27787;44.594;11.046;2023-11-19T07:44:43;101497.16;;;6.98;78.44
42125;BME280;27787;44.594;11.046;2023-11-19T07:47:27;101507.03;;;7.05;73.91
42125;BME280;27787;44.594;11.046;2023-11-19T07:50:12;101508.47;;;7.22;71.17
42125;BME280;27787;44.594;11.046;2023-11-19T07:53:01;101514.97;;;7.33;67.34
42125;BME280;27787;44.594;11.046;2023-11-19T07:55:48;101510.75;;;7.38;65.78
42125;BME280;27787;44.594;11.046;2023-11-19T07:58:32;101519.88;;;7.50;66.07
42125;BME280;27787;44.594;11.046;2023-11-19T08:01:16;101516.69;;;7.60;66.41
42125;BME280;27787;44.594;11.046;2023-11-19T08:04:00;101524.13;;;7.73;67.62
42125;BME280;27787;44.594;11.046;2023-11-19T08:06:45;101519.00;;;7.78;68.06
42125;BME280;27787;44.594;11.046;2023-11-19T08:09:30;101507.66;;;7.80;68.11
42125;BME280;27787;44.594;11.046;2023-11-19T08:12:15;101519.28;;;7.87;67.96
42125;BME280;27787;44.594;11.046;2023-11-19T08:15:01;101516.91;;;7.94;67.01
42125;BME280;27787;44.594;11.046;2023-11-19T08:17:45;101517.09;;;8.02;65.83
42125;BME280;27787;44.594;11.046;2023-11-19T08:20:29;101514.72;;;8.10;65.26
42125;BME280;27787;44.594;11.046;2023-11-19T08:23:13;101515.72;;;8.15;65.84
42125;BME280;27787;44.594;11.046;2023-11-19T08:25:57;101516.75;;;8.20;66.01
42125;BME280;27787;44.594;11.046;2023-11-19T08:28:41;101520.47;;;8.26;67.01
42125;BME280;27787;44.594;11.046;2023-11-19T08:31:25;101523.34;;;8.34;67.97
42125;BME280;27787;44.594;11.046;2023-11-19T08:34:11;101527.00;;;8.39;68.56
42125;BME280;27787;44.594;11.046;2023-11-19T08:36:55;101528.84;;;8.43;69.21
42125;BME280;27787;44.594;11.046;2023-11-19T08:39:40;101526.41;;;8.49;69.17
42125;BME280;27787;44.594;11.046;2023-11-19T08:42:25;101520.22;;;8.47;68.72
42125;BME280;27787;44.594;11.046;2023-11-19T08:45:10;101513.25;;;8.49;68.00
42125;BME280;27787;44.594;11.046;2023-11-19T08:47:54;101507.16;;;8.50;67.40
42125;BME280;27787;44.594;11.046;2023-11-19T08:50:38;101508.13;;;8.54;66.43
42125;BME280;27787;44.594;11.046;2023-11-19T08:53:22;101512.66;;;8.60;66.64
42125;BME280;27787;44.594;11.046;2023-11-19T08:56:07;101500.66;;;8.71;66.18
42125;BME280;27787;44.594;11.046;2023-11-19T08:58:51;101508.03;;;8.84;65.22
42125;BME280;27787;44.594;11.046;2023-11-19T09:01:35;101509.25;;;8.97;63.36
42125;BME280;27787;44.594;11.046;2023-11-19T09:04:20;101503.38;;;9.07;61.58
42125;BME280;27787;44.594;11.046;2023-11-19T09:07:06;101502.66;;;9.12;61.14
42125;BME280;27787;44.594;11.046;2023-11-19T09:09:50;101501.88;;;9.16;60.79
42125;BME280;27787;44.594;11.046;2023-11-19T09:12:34;101502.88;;;9.23;61.03
42125;BME280;27787;44.594;11.046;2023-11-19T09:15:19;101504.88;;;9.32;60.44
42125;BME280;27787;44.594;11.046;2023-11-19T09:18:03;101515.66;;;9.41;59.16
42125;BME280;27787;44.594;11.046;2023-11-19T09:20:48;101512.38;;;9.51;58.90
42125;BME280;27787;44.594;11.046;2023-11-19T09:23:32;101508.09;;;9.56;57.21
42125;BME280;27787;44.594;11.046;2023-11-19T09:26:20;101502.91;;;9.61;57.01
42125;BME280;27787;44.594;11.046;2023-11-19T09:29:04;101512.69;;;9.65;56.29
42125;BME280;27787;44.594;11.046;2023-11-19T09:31:49;101516.34;;;9.71;57.89
42125;BME280;27787;44.594;11.046;2023-11-19T09:34:33;101511.25;;;9.79;60.33
42125;BME280;27787;44.594;11.046;2023-11-19T09:37:17;101514.88;;;9.84;60.42
42125;BME280;27787;44.594;11.046;2023-11-19T09:40:01;101514.97;;;9.89;60.02
42125;BME280;27787;44.594;11.046;2023-11-19T09:42:45;101509.81;;;9.93;58.41
42125;BME280;27787;44.594;11.046;2023-11-19T09:45:32;101522.22;;;9.97;57.13
42125;BME280;27787;44.594;11.046;2023-11-19T09:48:24;101521.50;;;10.04;56.97
42125;BME280;27787;44.594;11.046;2023-11-19T09:51:10;101518.91;;;10.06;57.16
42125;BME280;27787;44.594;11.046;2023-11-19T09:53:55;101507.53;;;10.10;57.73
42125;BME280;27787;44.594;11.046;2023-11-19T09:56:40;101512.06;;;10.16;58.62
42125;BME280;27787;44.594;11.046;2023-11-19T09:59:25;101496.38;;;10.22;59.75
42125;BME280;27787;44.594;11.046;2023-11-19T10:02:09;101496.59;;;10.31;61.42
42125;BME280;27787;44.594;11.046;2023-11-19T10:04:54;101494.91;;;10.36;61.91
42125;BME280;27787;44.594;11.046;2023-11-19T10:07:39;101492.31;;;10.38;62.48
42125;BME280;27787;44.594;11.046;2023-11-19T10:10:23;101499.44;;;10.42;62.81
42125;BME280;27787;44.594;11.046;2023-11-19T10:13:08;101489.81;;;10.44;62.39
42125;BME280;27787;44.594;11.046;2023-11-19T10:15:52;101481.91;;;10.45;62.63
42125;BME280;27787;44.594;11.046;2023-11-19T10:18:37;101473.19;;;10.49;63.60
42125;BME280;27787;44.594;11.046;2023-11-19T10:21:22;101459.16;;;10.53;63.97
42125;BME280;27787;44.594;11.046;2023-11-19T10:24:06;101473.34;;;10.57;64.36
42125;BME280;27787;44.594;11.046;2023-11-19T10:26:51;101472.50;;;10.59;63.51
42125;BME280;27787;44.594;11.046;2023-11-19T10:29:38;101473.47;;;10.64;63.62
42125;BME280;27787;44.594;11.046;2023-11-19T10:32:22;101470.84;;;10.66;63.82
42125;BME280;27787;44.594;11.046;2023-11-19T10:35:06;101466.50;;;10.68;64.02
42125;BME280;27787;44.594;11.046;2023-11-19T10:37:51;101469.22;;;10.73;63.62
42125;BME280;27787;44.594;11.046;2023-11-19T10:40:39;101464.91;;;10.79;63.36
42125;BME280;27787;44.594;11.046;2023-11-19T10:43:26;101456.25;;;10.86;62.80
42125;BME280;27787;44.594;11.046;2023-11-19T10:46:11;101451.94;;;10.93;63.19
42125;BME280;27787;44.594;11.046;2023-11-19T10:48:56;101452.06;;;10.99;63.32
42125;BME280;27787;44.594;11.046;2023-11-19T10:51:45;101444.28;;;11.07;62.78
42125;BME280;27787;44.594;11.046;2023-11-19T10:54:30;101435.59;;;11.15;62.79
42125;BME280;27787;44.594;11.046;2023-11-19T10:57:20;101438.38;;;11.23;62.22
42125;BME280;27787;44.594;11.046;2023-11-19T11:00:07;101442.88;;;11.30;61.54
42125;BME280;27787;44.594;11.046;2023-11-19T11:03:00;101443.00;;;11.38;59.38
42125;BME280;27787;44.594;11.046;2023-11-19T11:05:47;101448.34;;;11.42;58.47
42125;BME280;27787;44.594;11.046;2023-11-19T11:08:31;101427.28;;;11.47;57.93
42125;BME280;27787;44.594;11.046;2023-11-19T11:11:20;101415.84;;;11.49;58.32
42125;BME280;27787;44.594;11.046;2023-11-19T11:14:07;101404.44;;;11.53;57.45
42125;BME280;27787;44.594;11.046;2023-11-19T11:16:53;101402.75;;;11.59;57.54
42125;BME280;27787;44.594;11.046;2023-11-19T11:19:41;101419.56;;;11.64;57.23
42125;BME280;27787;44.594;11.046;2023-11-19T11:22:28;101409.91;;;11.66;56.01
42125;BME280;27787;44.594;11.046;2023-11-19T11:25:23;101405.53;;;11.71;56.09
42125;BME280;27787;44.594;11.046;2023-11-19T11:28:39;101403.88;;;11.76;55.33
42125;BME280;27787;44.594;11.046;2023-11-19T11:34:53;101381.09;;;11.86;55.48
42125;BME280;27787;44.594;11.046;2023-11-19T11:37:46;101383.78;;;11.89;55.70
42125;BME280;27787;44.594;11.046;2023-11-19T11:40:36;101387.34;;;11.92;55.90
42125;BME280;27787;44.594;11.046;2023-11-19T11:43:45;101382.09;;;11.97;55.43
42125;BME280;27787;44.594;11.046;2023-11-19T11:49:24;101381.34;;;12.08;56.12
42125;BME280;27787;44.594;11.046;2023-11-19T11:52:09;101367.31;;;12.13;56.55
42125;BME280;27787;44.594;11.046;2023-11-19T11:55:04;101350.56;;;12.17;56.92
42125;BME280;27787;44.594;11.046;2023-11-19T11:57:50;101347.94;;;12.20;57.03
42125;BME280;27787;44.594;11.046;2023-11-19T12:00:39;101350.69;;;12.26;57.97
42125;BME280;27787;44.594;11.046;2023-11-19T12:03:23;101347.19;;;12.31;59.22
42125;BME280;27787;44.594;11.046;2023-11-19T12:06:07;101334.84;;;12.32;60.36
42125;BME280;27787;44.594;11.046;2023-11-19T12:08:52;101334.84;;;12.32;60.41
42125;BME280;27787;44.594;11.046;2023-11-19T12:11:36;101333.09;;;12.35;60.57
42125;BME280;27787;44.594;11.046;2023-11-19T12:15:14;101339.34;;;12.42;60.60
42125;BME280;27787;44.594;11.046;2023-11-19T12:17:56;101329.66;;;12.44;60.49
42125;BME280;27787;44.594;11.046;2023-11-19T12:20:39;101326.16;;;12.48;60.41
42125;BME280;27787;44.594;11.046;2023-11-19T12:23:23;101330.56;;;12.49;60.50
42125;BME280;27787;44.594;11.046;2023-11-19T12:26:07;101319.13;;;12.52;60.87
42125;BME280;27787;44.594;11.046;2023-11-19T12:28:58;101317.41;;;12.55;61.02
42125;BME280;27787;44.594;11.046;2023-11-19T12:31:44;101321.84;;;12.59;61.72
42125;BME280;27787;44.594;11.046;2023-11-19T12:34:28;101316.56;;;12.62;62.48
42125;BME280;27787;44.594;11.046;2023-11-19T12:37:12;101304.25;;;12.66;62.22
42125;BME280;27787;44.594;11.046;2023-11-19T12:39:57;101298.06;;;12.68;62.07
42125;BME280;27787;44.594;11.046;2023-11-19T12:42:42;101291.03;;;12.72;62.14
42125;BME280;27787;44.594;11.046;2023-11-19T12:45:36;101294.56;;;12.76;62.38
42125;BME280;27787;44.594;11.046;2023-11-19T12:48:20;101293.75;;;12.83;61.90
42125;BME280;27787;44.594;11.046;2023-11-19T12:51:05;101285.81;;;12.84;61.25
42125;BME280;27787;44.594;11.046;2023-11-19T12:53:50;101288.47;;;12.86;60.84
42125;BME280;27787;44.594;11.046;2023-11-19T12:56:38;101278.75;;;12.88;60.46
42125;BME280;27787;44.594;11.046;2023-11-19T12:59:22;101276.16;;;12.92;61.00
42125;BME280;27787;44.594;11.046;2023-11-19T13:02:06;101265.56;;;12.92;59.78
42125;BME280;27787;44.594;11.046;2023-11-19T13:04:51;101257.63;;;12.92;59.65
42125;BME280;27787;44.594;11.046;2023-11-19T13:07:35;101266.44;;;12.94;58.47
42125;BME280;27787;44.594;11.046;2023-11-19T13:10:19;101268.22;;;13.00;58.67
42125;BME280;27787;44.594;11.046;2023-11-19T13:13:04;101265.63;;;13.05;57.98
42125;BME280;27787;44.594;11.046;2023-11-19T13:15:49;101249.72;;;13.06;57.92
42125;BME280;27787;44.594;11.046;2023-11-19T13:18:33;101246.22;;;13.09;57.93
42125;BME280;27787;44.594;11.046;2023-11-19T13:21:18;101252.44;;;13.15;58.48
42125;BME280;27787;44.594;11.046;2023-11-19T13:24:02;101244.50;;;13.17;58.30
42125;BME280;27787;44.594;11.046;2023-11-19T13:26:47;101236.56;;;13.18;58.16
42125;BME280;27787;44.594;11.046;2023-11-19T13:29:31;101233.03;;;13.22;57.85
42125;BME280;27787;44.594;11.046;2023-11-19T13:32:16;101227.78;;;13.28;58.49
42125;BME280;27787;44.594;11.046;2023-11-19T13:34:59;101221.59;;;13.34;59.03
42125;BME280;27787;44.594;11.046;2023-11-19T13:37:45;101225.13;;;13.36;58.95
42125;BME280;27787;44.594;11.046;2023-11-19T13:40:30;101223.38;;;13.40;58.85
42125;BME280;27787;44.594;11.046;2023-11-19T13:43:14;101213.66;;;13.40;58.82
42125;BME280;27787;44.594;11.046;2023-11-19T13:45:58;101221.66;;;13.43;59.33
42125;BME280;27787;44.594;11.046;2023-11-19T13:48:42;101205.72;;;13.46;59.65
42125;BME280;27787;44.594;11.046;2023-11-19T13:51:27;101206.63;;;13.50;60.02
42125;BME280;27787;44.594;11.046;2023-11-19T13:54:11;101205.72;;;13.52;60.34
42125;BME280;27787;44.594;11.046;2023-11-19T13:57:01;101205.72;;;13.54;60.17
42125;BME280;27787;44.594;11.046;2023-11-19T13:59:47;101196.91;;;13.56;60.17
42125;BME280;27787;44.594;11.046;2023-11-19T14:02:35;101196.91;;;13.58;60.29
42125;BME280;27787;44.594;11.046;2023-11-19T14:05:19;101196.03;;;13.62;60.32
42125;BME280;27787;44.594;11.046;2023-11-19T14:08:04;101194.28;;;13.70;61.18
42125;BME280;27787;44.594;11.046;2023-11-19T14:10:55;101199.59;;;13.75;60.93
42125;BME280;27787;44.594;11.046;2023-11-19T14:13:39;101197.81;;;13.80;60.95
42125;BME280;27787;44.594;11.046;2023-11-19T14:16:27;101204.94;;;13.82;61.04
42125;BME280;27787;44.594;11.046;2023-11-19T14:19:11;101189.88;;;13.86;60.96
42125;BME280;27787;44.594;11.046;2023-11-19T14:21:55;101192.53;;;13.92;62.19
42125;BME280;27787;44.594;11.046;2023-11-19T14:24:39;101188.13;;;13.99;62.69
42125;BME280;27787;44.594;11.046;2023-11-19T14:27:25;101186.34;;;14.01;62.36
42125;BME280;27787;44.594;11.046;2023-11-19T14:30:11;101189.00;;;14.02;62.18